METAR AND TAF INFORMATION
METAR FOR ZWWW
ADDS - METARS form results

(1214 UTC 17 June 2019)
Data provider http://aviationweather.gov/metar/data/
 
METAR text: ZWWW 171200Z 33004MPS 9999 FEW040CB 27/07 Q1012 NOSIG
Conditions at: ZWWW (URUM-QI/DIWOPU , CN) observed 1200 UTC 17 June 2019
Temperature: 27.0°C (81°F)
Dewpoint: 7.0°C (45°F) [RH = 28%]
Pressure (altimeter): 29.88 inches Hg (1012.0 mb)
Winds: from the NNW (330 degrees) at 9 MPH (8 knots; 4.1 m/s)
Visibility: 6 or more miles (10+ km)
Ceiling: at least 12,000 feet AGL
Clouds: few clouds at 4000 feet AGL
Weather: no significant weather observed at this time

METAR text: ZWWW 171130Z 35003MPS 310V060 CAVOK 27/06 Q1012 NOSIG
Conditions at: ZWWW (URUM-QI/DIWOPU , CN) observed 1130 UTC 17 June 2019
Temperature: 27.0°C (81°F)
Dewpoint: 6.0°C (43°F) [RH = 26%]
Pressure (altimeter): 29.88 inches Hg (1012.0 mb)
Winds: from the N (350 degrees) at 7 MPH (6 knots; 3.1 m/s)
Visibility: 6 or more miles (10+ km)
Ceiling: ceiling and visibility are OK
Clouds: unknown
Weather: no significant weather observed at this time

Forecast for: ZWWW (URUM-QI/DIWOPU , CN)
Text: TAF ZWWW 170901Z 1712/1812 02004MPS CAVOK TX29/1809Z TN17/1723Z
Forecast period: 1200 to 1300 UTC 17 June 2019
Forecast type: FROM: standard forecast or significant change
Winds: from the NNE (20 degrees) at 9 MPH (8 knots; 4.1 m/s)
Visibility: 6 or more miles 10+ km)
Ceiling: unknown
Clouds: missing
Weather: no significant weather forecast for this period
Text: BECMG 1713/1714 18004MPS
Forecast period: 1300 UTC 17 June 2019 to 0200 UTC 18 June 2019
Forecast type: BECOMING: Conditions expected to become as follows by 1400 UTC 17 June 2019
Winds: from the S (180 degrees) at 9 MPH (8 knots; 4.1 m/s)
Visibility: 6 or more miles 10+ km)
Ceiling: unknown
Clouds: missing
Weather: no significant weather forecast for this period
Text: BECMG 1802/1803 36004MPS
Forecast period: 0200 to 1200 UTC 18 June 2019
Forecast type: BECOMING: Conditions expected to become as follows by 0300 UTC 18 June 2019
Winds: from the N (360 degrees) at 9 MPH (8 knots; 4.1 m/s)
Visibility: 6 or more miles 10+ km)
Ceiling: unknown
Clouds: missing
Weather: no significant weather forecast for this period

 AIRPORT MAP

 RUNWAY INFORMATION

 AIRPORT FREQUENCIES
Type ATIS Name ATIS Frequency 126.7 MHZ
Type GND Name GND Frequency 121.65 MHZ
Type TWR Name TWR Frequency 118.1 MHZ

 AIRPORT NEAR NAVIGATION AIDS
Type NDB Name Fukang Frequency 369 KHZ
Type VOR-DME Name Fukang Frequency 116300 KHZ
Type VOR-DME Name Urumqi Frequency 115700 KHZ



2018 Air Astana Virtual Airline